sensor_id;sensor_type;location;lat;lon;timestamp;P1;durP1;ratioP1;P2;durP2;ratioP2
15342;SDS011;7771;48.478;8.936;2024-02-28T00:00:42;24.63;;;16.20;;
15342;SDS011;7771;48.478;8.936;2024-02-28T00:03:10;26.27;;;16.63;;
15342;SDS011;7771;48.478;8.936;2024-02-28T00:05:36;28.03;;;17.30;;
15342;SDS011;7771;48.478;8.936;2024-02-28T00:08:04;25.37;;;17.30;;
15342;SDS011;7771;48.478;8.936;2024-02-28T00:10:31;28.93;;;18.07;;
15342;SDS011;7771;48.478;8.936;2024-02-28T00:12:58;27.87;;;16.93;;
15342;SDS011;7771;48.478;8.936;2024-02-28T00:15:25;30.33;;;18.87;;
15342;SDS011;7771;48.478;8.936;2024-02-28T00:17:52;29.70;;;17.93;;
15342;SDS011;7771;48.478;8.936;2024-02-28T00:20:18;26.23;;;16.80;;
15342;SDS011;7771;48.478;8.936;2024-02-28T00:22:45;29.00;;;17.63;;
15342;SDS011;7771;48.478;8.936;2024-02-28T00:25:12;31.10;;;18.00;;
15342;SDS011;7771;48.478;8.936;2024-02-28T00:27:39;26.47;;;17.13;;
15342;SDS011;7771;48.478;8.936;2024-02-28T00:30:07;29.80;;;17.20;;
15342;SDS011;7771;48.478;8.936;2024-02-28T00:32:33;22.77;;;16.20;;
15342;SDS011;7771;48.478;8.936;2024-02-28T00:35:02;24.73;;;15.27;;
15342;SDS011;7771;48.478;8.936;2024-02-28T00:37:29;26.67;;;16.03;;
15342;SDS011;7771;48.478;8.936;2024-02-28T00:39:55;30.33;;;17.07;;
15342;SDS011;7771;48.478;8.936;2024-02-28T00:42:23;27.37;;;16.07;;
15342;SDS011;7771;48.478;8.936;2024-02-28T00:44:52;25.10;;;16.37;;
15342;SDS011;7771;48.478;8.936;2024-02-28T00:47:23;24.80;;;15.97;;
15342;SDS011;7771;48.478;8.936;2024-02-28T00:49:51;23.50;;;15.23;;
15342;SDS011;7771;48.478;8.936;2024-02-28T00:52:18;26.47;;;16.13;;
15342;SDS011;7771;48.478;8.936;2024-02-28T00:54:45;24.90;;;14.80;;
15342;SDS011;7771;48.478;8.936;2024-02-28T00:57:12;25.27;;;15.90;;
15342;SDS011;7771;48.478;8.936;2024-02-28T00:59:39;22.13;;;15.00;;
15342;SDS011;7771;48.478;8.936;2024-02-28T01:02:05;24.67;;;16.33;;
15342;SDS011;7771;48.478;8.936;2024-02-28T01:04:32;27.23;;;15.70;;
15342;SDS011;7771;48.478;8.936;2024-02-28T01:07:00;26.40;;;15.70;;
15342;SDS011;7771;48.478;8.936;2024-02-28T01:09:27;21.43;;;14.40;;
15342;SDS011;7771;48.478;8.936;2024-02-28T01:11:55;24.40;;;15.63;;
15342;SDS011;7771;48.478;8.936;2024-02-28T01:14:22;24.73;;;15.73;;
15342;SDS011;7771;48.478;8.936;2024-02-28T01:16:49;23.60;;;15.57;;
15342;SDS011;7771;48.478;8.936;2024-02-28T01:19:16;22.47;;;14.57;;
15342;SDS011;7771;48.478;8.936;2024-02-28T01:21:42;25.70;;;14.87;;
15342;SDS011;7771;48.478;8.936;2024-02-28T01:24:09;23.70;;;15.33;;
15342;SDS011;7771;48.478;8.936;2024-02-28T01:26:35;23.37;;;15.33;;
15342;SDS011;7771;48.478;8.936;2024-02-28T01:29:02;24.70;;;16.33;;
15342;SDS011;7771;48.478;8.936;2024-02-28T01:31:30;24.37;;;15.57;;
15342;SDS011;7771;48.478;8.936;2024-02-28T01:33:58;24.53;;;15.27;;
15342;SDS011;7771;48.478;8.936;2024-02-28T01:36:26;24.53;;;15.27;;
15342;SDS011;7771;48.478;8.936;2024-02-28T01:38:55;25.73;;;16.07;;
15342;SDS011;7771;48.478;8.936;2024-02-28T01:41:21;23.40;;;15.43;;
15342;SDS011;7771;48.478;8.936;2024-02-28T01:43:48;24.07;;;15.73;;
15342;SDS011;7771;48.478;8.936;2024-02-28T01:46:20;23.77;;;15.47;;
15342;SDS011;7771;48.478;8.936;2024-02-28T01:48:47;26.30;;;15.47;;
15342;SDS011;7771;48.478;8.936;2024-02-28T01:51:13;24.17;;;16.10;;
15342;SDS011;7771;48.478;8.936;2024-02-28T01:53:41;22.73;;;15.63;;
15342;SDS011;7771;48.478;8.936;2024-02-28T01:56:07;21.17;;;15.17;;
15342;SDS011;7771;48.478;8.936;2024-02-28T01:58:34;24.03;;;16.07;;
15342;SDS011;7771;48.478;8.936;2024-02-28T02:01:01;24.13;;;16.47;;
15342;SDS011;7771;48.478;8.936;2024-02-28T02:03:28;24.43;;;15.13;;
15342;SDS011;7771;48.478;8.936;2024-02-28T02:05:55;23.53;;;15.60;;
15342;SDS011;7771;48.478;8.936;2024-02-28T02:08:23;24.33;;;15.57;;
15342;SDS011;7771;48.478;8.936;2024-02-28T02:10:51;23.33;;;14.97;;
15342;SDS011;7771;48.478;8.936;2024-02-28T02:13:18;28.97;;;15.77;;
15342;SDS011;7771;48.478;8.936;2024-02-28T02:15:44;24.40;;;14.97;;
15342;SDS011;7771;48.478;8.936;2024-02-28T02:18:12;23.77;;;15.67;;
15342;SDS011;7771;48.478;8.936;2024-02-28T02:20:41;26.77;;;15.63;;
15342;SDS011;7771;48.478;8.936;2024-02-28T02:23:06;25.70;;;15.73;;
15342;SDS011;7771;48.478;8.936;2024-02-28T02:25:34;25.53;;;16.37;;
15342;SDS011;7771;48.478;8.936;2024-02-28T02:28:01;22.80;;;15.43;;
15342;SDS011;7771;48.478;8.936;2024-02-28T02:30:28;26.43;;;16.07;;
15342;SDS011;7771;48.478;8.936;2024-02-28T02:32:55;25.03;;;16.80;;
15342;SDS011;7771;48.478;8.936;2024-02-28T02:35:22;24.70;;;15.57;;
15342;SDS011;7771;48.478;8.936;2024-02-28T02:37:51;24.00;;;15.73;;
15342;SDS011;7771;48.478;8.936;2024-02-28T02:40:17;25.83;;;16.37;;
15342;SDS011;7771;48.478;8.936;2024-02-28T02:42:44;26.83;;;17.20;;
15342;SDS011;7771;48.478;8.936;2024-02-28T02:45:12;26.03;;;15.23;;
15342;SDS011;7771;48.478;8.936;2024-02-28T02:47:39;25.80;;;16.17;;
15342;SDS011;7771;48.478;8.936;2024-02-28T02:50:06;24.37;;;15.27;;
15342;SDS011;7771;48.478;8.936;2024-02-28T02:52:32;29.17;;;16.40;;
15342;SDS011;7771;48.478;8.936;2024-02-28T02:54:59;24.40;;;16.30;;
15342;SDS011;7771;48.478;8.936;2024-02-28T02:57:27;24.40;;;17.03;;
15342;SDS011;7771;48.478;8.936;2024-02-28T02:59:54;27.60;;;18.70;;
15342;SDS011;7771;48.478;8.936;2024-02-28T03:02:21;23.40;;;16.00;;
15342;SDS011;7771;48.478;8.936;2024-02-28T03:04:48;24.47;;;16.33;;
15342;SDS011;7771;48.478;8.936;2024-02-28T03:07:15;24.77;;;15.83;;
15342;SDS011;7771;48.478;8.936;2024-02-28T03:09:42;25.67;;;16.67;;
15342;SDS011;7771;48.478;8.936;2024-02-28T03:12:10;26.50;;;15.50;;
15342;SDS011;7771;48.478;8.936;2024-02-28T03:14:37;25.20;;;16.07;;
15342;SDS011;7771;48.478;8.936;2024-02-28T03:17:05;23.90;;;15.90;;
15342;SDS011;7771;48.478;8.936;2024-02-28T03:19:33;27.97;;;16.87;;
15342;SDS011;7771;48.478;8.936;2024-02-28T03:22:01;28.37;;;16.03;;
15342;SDS011;7771;48.478;8.936;2024-02-28T03:24:27;26.50;;;16.83;;
15342;SDS011;7771;48.478;8.936;2024-02-28T03:26:55;24.27;;;16.93;;
15342;SDS011;7771;48.478;8.936;2024-02-28T03:29:22;24.80;;;16.57;;
15342;SDS011;7771;48.478;8.936;2024-02-28T03:31:49;25.60;;;16.10;;
15342;SDS011;7771;48.478;8.936;2024-02-28T03:34:16;23.43;;;15.80;;
15342;SDS011;7771;48.478;8.936;2024-02-28T03:36:42;24.53;;;15.77;;
15342;SDS011;7771;48.478;8.936;2024-02-28T03:39:09;29.93;;;16.43;;
15342;SDS011;7771;48.478;8.936;2024-02-28T03:41:36;24.77;;;16.33;;
15342;SDS011;7771;48.478;8.936;2024-02-28T03:44:02;27.47;;;16.40;;
15342;SDS011;7771;48.478;8.936;2024-02-28T03:46:29;23.60;;;16.13;;
15342;SDS011;7771;48.478;8.936;2024-02-28T03:48:56;32.30;;;19.20;;
15342;SDS011;7771;48.478;8.936;2024-02-28T03:51:22;28.53;;;18.10;;
15342;SDS011;7771;48.478;8.936;2024-02-28T03:53:49;27.30;;;17.70;;
15342;SDS011;7771;48.478;8.936;2024-02-28T03:56:23;28.80;;;17.23;;
15342;SDS011;7771;48.478;8.936;2024-02-28T03:58:52;28.53;;;17.03;;
15342;SDS011;7771;48.478;8.936;2024-02-28T04:01:18;25.97;;;17.33;;
15342;SDS011;7771;48.478;8.936;2024-02-28T04:03:46;28.70;;;17.93;;
15342;SDS011;7771;48.478;8.936;2024-02-28T04:06:14;29.80;;;17.43;;
15342;SDS011;7771;48.478;8.936;2024-02-28T04:08:41;28.90;;;17.87;;
15342;SDS011;7771;48.478;8.936;2024-02-28T04:11:09;25.73;;;15.70;;
15342;SDS011;7771;48.478;8.936;2024-02-28T04:13:36;25.47;;;16.50;;
15342;SDS011;7771;48.478;8.936;2024-02-28T04:16:03;29.17;;;17.13;;
15342;SDS011;7771;48.478;8.936;2024-02-28T04:18:30;24.50;;;16.83;;
15342;SDS011;7771;48.478;8.936;2024-02-28T04:20:58;30.73;;;17.90;;
15342;SDS011;7771;48.478;8.936;2024-02-28T04:23:25;26.57;;;17.30;;
15342;SDS011;7771;48.478;8.936;2024-02-28T04:25:51;28.63;;;17.10;;
15342;SDS011;7771;48.478;8.936;2024-02-28T04:28:18;27.73;;;17.20;;
15342;SDS011;7771;48.478;8.936;2024-02-28T04:30:45;27.30;;;16.03;;
15342;SDS011;7771;48.478;8.936;2024-02-28T04:33:13;25.60;;;16.13;;
15342;SDS011;7771;48.478;8.936;2024-02-28T04:35:40;25.87;;;15.73;;
15342;SDS011;7771;48.478;8.936;2024-02-28T04:38:07;27.03;;;16.67;;
15342;SDS011;7771;48.478;8.936;2024-02-28T04:40:34;30.20;;;18.70;;
15342;SDS011;7771;48.478;8.936;2024-02-28T04:43:02;26.57;;;15.70;;
15342;SDS011;7771;48.478;8.936;2024-02-28T04:45:29;28.23;;;17.17;;
15342;SDS011;7771;48.478;8.936;2024-02-28T04:47:56;28.10;;;17.67;;
15342;SDS011;7771;48.478;8.936;2024-02-28T04:50:23;29.30;;;16.10;;
15342;SDS011;7771;48.478;8.936;2024-02-28T04:52:51;26.00;;;15.47;;
15342;SDS011;7771;48.478;8.936;2024-02-28T04:55:18;27.53;;;15.83;;
15342;SDS011;7771;48.478;8.936;2024-02-28T04:57:45;26.47;;;16.57;;
15342;SDS011;7771;48.478;8.936;2024-02-28T05:00:13;26.00;;;16.83;;
15342;SDS011;7771;48.478;8.936;2024-02-28T05:02:40;27.87;;;15.77;;
15342;SDS011;7771;48.478;8.936;2024-02-28T05:05:08;29.87;;;17.40;;
15342;SDS011;7771;48.478;8.936;2024-02-28T05:07:35;29.40;;;17.43;;
15342;SDS011;7771;48.478;8.936;2024-02-28T05:10:02;28.33;;;17.60;;
15342;SDS011;7771;48.478;8.936;2024-02-28T05:12:29;29.03;;;16.07;;
15342;SDS011;7771;48.478;8.936;2024-02-28T05:14:56;26.03;;;15.80;;
15342;SDS011;7771;48.478;8.936;2024-02-28T05:17:24;25.50;;;16.13;;
15342;SDS011;7771;48.478;8.936;2024-02-28T05:19:50;28.30;;;15.77;;
15342;SDS011;7771;48.478;8.936;2024-02-28T05:22:18;27.93;;;16.47;;
15342;SDS011;7771;48.478;8.936;2024-02-28T05:24:46;24.47;;;15.83;;
15342;SDS011;7771;48.478;8.936;2024-02-28T05:27:12;25.90;;;15.67;;
15342;SDS011;7771;48.478;8.936;2024-02-28T05:29:39;27.03;;;16.70;;
15342;SDS011;7771;48.478;8.936;2024-02-28T05:32:06;26.77;;;16.27;;
15342;SDS011;7771;48.478;8.936;2024-02-28T05:34:33;28.20;;;17.50;;
15342;SDS011;7771;48.478;8.936;2024-02-28T05:37:01;26.03;;;16.33;;
15342;SDS011;7771;48.478;8.936;2024-02-28T05:39:29;28.03;;;16.17;;
15342;SDS011;7771;48.478;8.936;2024-02-28T05:41:55;31.00;;;16.93;;
15342;SDS011;7771;48.478;8.936;2024-02-28T05:44:22;27.83;;;17.10;;
15342;SDS011;7771;48.478;8.936;2024-02-28T05:46:49;28.87;;;16.47;;
15342;SDS011;7771;48.478;8.936;2024-02-28T05:49:15;23.83;;;16.43;;
15342;SDS011;7771;48.478;8.936;2024-02-28T05:51:42;28.20;;;16.53;;
15342;SDS011;7771;48.478;8.936;2024-02-28T05:54:10;25.97;;;16.53;;
15342;SDS011;7771;48.478;8.936;2024-02-28T05:56:38;26.43;;;16.83;;
15342;SDS011;7771;48.478;8.936;2024-02-28T05:59:05;24.70;;;16.70;;
15342;SDS011;7771;48.478;8.936;2024-02-28T06:01:33;24.43;;;14.77;;
15342;SDS011;7771;48.478;8.936;2024-02-28T06:04:01;26.10;;;16.33;;
15342;SDS011;7771;48.478;8.936;2024-02-28T06:06:29;25.47;;;16.47;;
15342;SDS011;7771;48.478;8.936;2024-02-28T06:08:55;25.13;;;15.60;;
15342;SDS011;7771;48.478;8.936;2024-02-28T06:11:24;29.13;;;16.53;;
15342;SDS011;7771;48.478;8.936;2024-02-28T06:13:51;22.67;;;14.97;;
15342;SDS011;7771;48.478;8.936;2024-02-28T06:16:17;24.20;;;14.87;;
15342;SDS011;7771;48.478;8.936;2024-02-28T06:18:45;26.63;;;14.83;;
15342;SDS011;7771;48.478;8.936;2024-02-28T06:21:13;23.77;;;15.73;;
15342;SDS011;7771;48.478;8.936;2024-02-28T06:23:40;26.97;;;17.17;;
15342;SDS011;7771;48.478;8.936;2024-02-28T06:26:08;24.30;;;15.20;;
15342;SDS011;7771;48.478;8.936;2024-02-28T06:28:36;24.20;;;15.20;;
15342;SDS011;7771;48.478;8.936;2024-02-28T06:31:02;27.17;;;15.47;;
15342;SDS011;7771;48.478;8.936;2024-02-28T06:33:30;22.63;;;15.20;;
15342;SDS011;7771;48.478;8.936;2024-02-28T06:35:58;33.60;;;20.33;;
15342;SDS011;7771;48.478;8.936;2024-02-28T06:38:24;25.73;;;15.83;;
15342;SDS011;7771;48.478;8.936;2024-02-28T06:40:52;23.90;;;16.03;;
15342;SDS011;7771;48.478;8.936;2024-02-28T06:43:20;27.43;;;15.23;;
15342;SDS011;7771;48.478;8.936;2024-02-28T06:45:48;26.33;;;16.17;;
15342;SDS011;7771;48.478;8.936;2024-02-28T06:48:16;26.23;;;16.00;;
15342;SDS011;7771;48.478;8.936;2024-02-28T06:50:44;25.40;;;15.87;;
15342;SDS011;7771;48.478;8.936;2024-02-28T06:53:10;25.57;;;14.83;;
15342;SDS011;7771;48.478;8.936;2024-02-28T06:55:38;28.03;;;15.63;;
15342;SDS011;7771;48.478;8.936;2024-02-28T06:58:05;23.77;;;15.83;;
15342;SDS011;7771;48.478;8.936;2024-02-28T07:00:33;23.43;;;15.83;;
15342;SDS011;7771;48.478;8.936;2024-02-28T07:03:00;24.23;;;16.00;;
15342;SDS011;7771;48.478;8.936;2024-02-28T07:05:28;24.97;;;16.03;;
15342;SDS011;7771;48.478;8.936;2024-02-28T07:07:55;23.17;;;15.47;;
15342;SDS011;7771;48.478;8.936;2024-02-28T07:10:23;27.23;;;15.77;;
15342;SDS011;7771;48.478;8.936;2024-02-28T07:12:49;23.70;;;15.67;;
15342;SDS011;7771;48.478;8.936;2024-02-28T07:15:17;25.73;;;14.73;;
15342;SDS011;7771;48.478;8.936;2024-02-28T07:17:45;30.90;;;16.20;;
15342;SDS011;7771;48.478;8.936;2024-02-28T07:20:11;27.47;;;17.23;;
15342;SDS011;7771;48.478;8.936;2024-02-28T07:22:41;23.60;;;15.33;;
15342;SDS011;7771;48.478;8.936;2024-02-28T07:25:07;23.53;;;14.50;;
15342;SDS011;7771;48.478;8.936;2024-02-28T07:27:34;25.60;;;15.33;;
15342;SDS011;7771;48.478;8.936;2024-02-28T07:30:01;26.83;;;15.53;;
15342;SDS011;7771;48.478;8.936;2024-02-28T07:32:29;25.67;;;15.90;;
15342;SDS011;7771;48.478;8.936;2024-02-28T07:34:56;26.33;;;15.70;;
15342;SDS011;7771;48.478;8.936;2024-02-28T07:37:24;25.47;;;15.83;;
15342;SDS011;7771;48.478;8.936;2024-02-28T07:39:50;21.90;;;15.00;;
15342;SDS011;7771;48.478;8.936;2024-02-28T07:42:18;22.57;;;15.00;;
15342;SDS011;7771;48.478;8.936;2024-02-28T07:44:46;23.87;;;15.67;;
15342;SDS011;7771;48.478;8.936;2024-02-28T07:47:13;24.17;;;16.10;;
15342;SDS011;7771;48.478;8.936;2024-02-28T07:49:40;23.53;;;15.37;;
15342;SDS011;7771;48.478;8.936;2024-02-28T07:52:08;21.00;;;14.10;;
15342;SDS011;7771;48.478;8.936;2024-02-28T07:54:36;21.40;;;14.07;;
15342;SDS011;7771;48.478;8.936;2024-02-28T07:57:04;20.03;;;13.90;;
15342;SDS011;7771;48.478;8.936;2024-02-28T07:59:31;22.00;;;14.97;;
15342;SDS011;7771;48.478;8.936;2024-02-28T08:01:58;19.87;;;13.53;;
15342;SDS011;7771;48.478;8.936;2024-02-28T08:04:26;19.83;;;13.33;;
15342;SDS011;7771;48.478;8.936;2024-02-28T08:06:53;22.87;;;14.10;;
15342;SDS011;7771;48.478;8.936;2024-02-28T08:09:20;20.13;;;13.57;;
15342;SDS011;7771;48.478;8.936;2024-02-28T08:11:46;22.43;;;14.70;;
15342;SDS011;7771;48.478;8.936;2024-02-28T08:14:13;22.37;;;14.10;;
15342;SDS011;7771;48.478;8.936;2024-02-28T08:16:41;19.90;;;13.77;;
15342;SDS011;7771;48.478;8.936;2024-02-28T08:19:09;20.73;;;13.17;;
15342;SDS011;7771;48.478;8.936;2024-02-28T08:21:37;24.00;;;14.37;;
15342;SDS011;7771;48.478;8.936;2024-02-28T08:24:03;20.60;;;14.50;;
15342;SDS011;7771;48.478;8.936;2024-02-28T08:26:31;21.97;;;14.40;;
15342;SDS011;7771;48.478;8.936;2024-02-28T08:28:57;22.63;;;14.37;;
15342;SDS011;7771;48.478;8.936;2024-02-28T08:31:26;20.63;;;13.83;;
15342;SDS011;7771;48.478;8.936;2024-02-28T08:33:52;20.30;;;13.07;;
15342;SDS011;7771;48.478;8.936;2024-02-28T08:36:19;22.87;;;14.20;;
15342;SDS011;7771;48.478;8.936;2024-02-28T08:38:47;20.23;;;12.90;;
15342;SDS011;7771;48.478;8.936;2024-02-28T08:41:13;17.77;;;12.83;;
15342;SDS011;7771;48.478;8.936;2024-02-28T08:43:40;20.83;;;14.10;;
15342;SDS011;7771;48.478;8.936;2024-02-28T08:46:07;21.23;;;13.73;;
15342;SDS011;7771;48.478;8.936;2024-02-28T08:48:35;21.60;;;13.80;;
15342;SDS011;7771;48.478;8.936;2024-02-28T08:51:02;22.00;;;13.90;;
15342;SDS011;7771;48.478;8.936;2024-02-28T08:53:30;21.10;;;13.60;;
15342;SDS011;7771;48.478;8.936;2024-02-28T08:55:56;22.70;;;13.27;;
15342;SDS011;7771;48.478;8.936;2024-02-28T08:58:26;23.27;;;13.90;;
15342;SDS011;7771;48.478;8.936;2024-02-28T09:00:52;24.70;;;15.83;;
15342;SDS011;7771;48.478;8.936;2024-02-28T09:03:20;23.53;;;14.87;;
15342;SDS011;7771;48.478;8.936;2024-02-28T09:05:47;21.83;;;13.97;;
15342;SDS011;7771;48.478;8.936;2024-02-28T09:08:15;23.37;;;13.97;;
15342;SDS011;7771;48.478;8.936;2024-02-28T09:10:42;19.03;;;13.47;;
15342;SDS011;7771;48.478;8.936;2024-02-28T09:13:10;20.20;;;13.90;;
15342;SDS011;7771;48.478;8.936;2024-02-28T09:15:37;19.73;;;13.00;;
15342;SDS011;7771;48.478;8.936;2024-02-28T09:18:04;19.40;;;12.80;;
15342;SDS011;7771;48.478;8.936;2024-02-28T09:20:31;46.97;;;16.37;;
15342;SDS011;7771;48.478;8.936;2024-02-28T09:22:58;58.00;;;16.50;;
15342;SDS011;7771;48.478;8.936;2024-02-28T09:25:25;22.70;;;13.17;;
15342;SDS011;7771;48.478;8.936;2024-02-28T09:27:53;18.17;;;12.53;;
15342;SDS011;7771;48.478;8.936;2024-02-28T09:30:20;24.97;;;12.30;;
15342;SDS011;7771;48.478;8.936;2024-02-28T09:32:47;19.70;;;12.63;;
15342;SDS011;7771;48.478;8.936;2024-02-28T09:35:15;35.37;;;14.60;;
15342;SDS011;7771;48.478;8.936;2024-02-28T09:37:41;20.40;;;12.77;;
15342;SDS011;7771;48.478;8.936;2024-02-28T09:40:09;24.43;;;13.10;;
15342;SDS011;7771;48.478;8.936;2024-02-28T09:42:37;22.87;;;13.33;;
15342;SDS011;7771;48.478;8.936;2024-02-28T09:45:05;17.53;;;12.00;;
15342;SDS011;7771;48.478;8.936;2024-02-28T09:47:34;16.10;;;11.60;;
15342;SDS011;7771;48.478;8.936;2024-02-28T09:50:01;15.53;;;11.30;;
15342;SDS011;7771;48.478;8.936;2024-02-28T09:52:28;18.13;;;12.83;;
15342;SDS011;7771;48.478;8.936;2024-02-28T09:54:56;19.50;;;11.93;;
15342;SDS011;7771;48.478;8.936;2024-02-28T09:57:23;18.20;;;12.93;;
15342;SDS011;7771;48.478;8.936;2024-02-28T09:59:50;18.50;;;11.90;;
15342;SDS011;7771;48.478;8.936;2024-02-28T10:02:17;19.60;;;12.17;;
15342;SDS011;7771;48.478;8.936;2024-02-28T10:04:44;17.27;;;11.77;;
15342;SDS011;7771;48.478;8.936;2024-02-28T10:07:12;17.27;;;11.93;;
15342;SDS011;7771;48.478;8.936;2024-02-28T10:09:40;17.77;;;12.07;;
15342;SDS011;7771;48.478;8.936;2024-02-28T10:12:06;18.37;;;12.73;;
15342;SDS011;7771;48.478;8.936;2024-02-28T10:14:35;19.77;;;12.70;;
15342;SDS011;7771;48.478;8.936;2024-02-28T10:17:03;18.87;;;12.50;;
15342;SDS011;7771;48.478;8.936;2024-02-28T10:19:29;17.53;;;11.93;;
15342;SDS011;7771;48.478;8.936;2024-02-28T10:21:56;22.97;;;13.10;;
15342;SDS011;7771;48.478;8.936;2024-02-28T10:26:46;20.97;;;13.70;;
15342;SDS011;7771;48.478;8.936;2024-02-28T10:29:15;20.23;;;13.07;;
15342;SDS011;7771;48.478;8.936;2024-02-28T10:31:42;19.20;;;13.00;;
15342;SDS011;7771;48.478;8.936;2024-02-28T10:34:09;18.57;;;12.83;;
15342;SDS011;7771;48.478;8.936;2024-02-28T10:36:37;20.03;;;13.07;;
15342;SDS011;7771;48.478;8.936;2024-02-28T10:39:03;18.13;;;11.97;;
15342;SDS011;7771;48.478;8.936;2024-02-28T10:41:32;16.27;;;12.23;;
15342;SDS011;7771;48.478;8.936;2024-02-28T10:43:58;19.83;;;12.93;;
15342;SDS011;7771;48.478;8.936;2024-02-28T10:46:25;18.07;;;12.40;;
15342;SDS011;7771;48.478;8.936;2024-02-28T10:48:51;17.03;;;11.93;;
15342;SDS011;7771;48.478;8.936;2024-02-28T10:51:20;21.53;;;12.73;;
15342;SDS011;7771;48.478;8.936;2024-02-28T10:53:47;24.17;;;13.43;;
15342;SDS011;7771;48.478;8.936;2024-02-28T10:56:15;23.10;;;13.17;;
15342;SDS011;7771;48.478;8.936;2024-02-28T10:58:50;20.10;;;13.50;;
15342;SDS011;7771;48.478;8.936;2024-02-28T11:01:13;17.53;;;12.53;;
15342;SDS011;7771;48.478;8.936;2024-02-28T11:03:40;24.23;;;14.10;;
15342;SDS011;7771;48.478;8.936;2024-02-28T11:06:16;18.53;;;11.80;;
15342;SDS011;7771;48.478;8.936;2024-02-28T11:08:35;22.83;;;14.03;;
15342;SDS011;7771;48.478;8.936;2024-02-28T11:11:03;19.67;;;12.50;;
15342;SDS011;7771;48.478;8.936;2024-02-28T11:13:31;18.47;;;12.67;;
15342;SDS011;7771;48.478;8.936;2024-02-28T11:16:13;21.27;;;13.40;;
15342;SDS011;7771;48.478;8.936;2024-02-28T11:21:15;20.83;;;13.83;;
15342;SDS011;7771;48.478;8.936;2024-02-28T11:23:42;20.13;;;13.37;;
15342;SDS011;7771;48.478;8.936;2024-02-28T11:26:10;39.50;;;14.87;;
15342;SDS011;7771;48.478;8.936;2024-02-28T11:28:36;32.07;;;14.00;;
15342;SDS011;7771;48.478;8.936;2024-02-28T11:31:04;27.73;;;13.77;;
15342;SDS011;7771;48.478;8.936;2024-02-28T11:33:31;18.80;;;12.17;;
15342;SDS011;7771;48.478;8.936;2024-02-28T11:35:58;26.57;;;13.90;;
15342;SDS011;7771;48.478;8.936;2024-02-28T11:38:26;26.40;;;13.03;;
15342;SDS011;7771;48.478;8.936;2024-02-28T11:40:54;19.37;;;12.97;;
15342;SDS011;7771;48.478;8.936;2024-02-28T11:43:22;21.80;;;14.47;;
15342;SDS011;7771;48.478;8.936;2024-02-28T11:45:49;22.17;;;15.33;;
15342;SDS011;7771;48.478;8.936;2024-02-28T11:48:16;21.43;;;14.43;;
15342;SDS011;7771;48.478;8.936;2024-02-28T11:50:44;19.30;;;13.67;;
15342;SDS011;7771;48.478;8.936;2024-02-28T11:53:11;22.63;;;13.63;;
15342;SDS011;7771;48.478;8.936;2024-02-28T11:55:39;22.77;;;13.53;;
15342;SDS011;7771;48.478;8.936;2024-02-28T11:58:08;20.17;;;13.50;;
15342;SDS011;7771;48.478;8.936;2024-02-28T12:00:46;19.10;;;12.17;;
15342;SDS011;7771;48.478;8.936;2024-02-28T12:03:21;104.60;;;21.50;;
15342;SDS011;7771;48.478;8.936;2024-02-28T12:05:47;24.07;;;12.80;;
15342;SDS011;7771;48.478;8.936;2024-02-28T12:08:14;18.63;;;12.50;;
15342;SDS011;7771;48.478;8.936;2024-02-28T12:10:41;22.27;;;13.17;;
15342;SDS011;7771;48.478;8.936;2024-02-28T12:13:09;20.53;;;13.90;;
15342;SDS011;7771;48.478;8.936;2024-02-28T12:15:36;18.37;;;12.73;;
15342;SDS011;7771;48.478;8.936;2024-02-28T12:18:07;17.60;;;12.27;;
15342;SDS011;7771;48.478;8.936;2024-02-28T12:20:34;17.90;;;12.30;;
15342;SDS011;7771;48.478;8.936;2024-02-28T12:23:00;18.87;;;12.07;;
15342;SDS011;7771;48.478;8.936;2024-02-28T12:25:27;20.63;;;13.17;;
15342;SDS011;7771;48.478;8.936;2024-02-28T12:27:55;21.80;;;14.23;;
15342;SDS011;7771;48.478;8.936;2024-02-28T12:30:24;21.17;;;13.30;;
15342;SDS011;7771;48.478;8.936;2024-02-28T12:32:50;19.57;;;12.90;;
15342;SDS011;7771;48.478;8.936;2024-02-28T12:35:16;21.20;;;13.50;;
15342;SDS011;7771;48.478;8.936;2024-02-28T12:37:44;19.63;;;12.97;;
15342;SDS011;7771;48.478;8.936;2024-02-28T12:40:13;18.83;;;12.30;;
15342;SDS011;7771;48.478;8.936;2024-02-28T12:42:41;36.83;;;13.60;;
15342;SDS011;7771;48.478;8.936;2024-02-28T12:45:08;24.30;;;12.70;;
15342;SDS011;7771;48.478;8.936;2024-02-28T12:47:36;19.43;;;11.50;;
15342;SDS011;7771;48.478;8.936;2024-02-28T12:50:04;19.60;;;13.03;;
15342;SDS011;7771;48.478;8.936;2024-02-28T12:52:31;18.40;;;12.30;;
15342;SDS011;7771;48.478;8.936;2024-02-28T12:54:58;18.53;;;12.33;;
15342;SDS011;7771;48.478;8.936;2024-02-28T13:00:12;19.23;;;12.23;;
15342;SDS011;7771;48.478;8.936;2024-02-28T13:02:39;16.27;;;12.07;;
15342;SDS011;7771;48.478;8.936;2024-02-28T13:05:06;18.43;;;12.47;;
15342;SDS011;7771;48.478;8.936;2024-02-28T13:07:35;20.20;;;13.13;;
15342;SDS011;7771;48.478;8.936;2024-02-28T13:10:03;19.07;;;11.70;;
15342;SDS011;7771;48.478;8.936;2024-02-28T13:12:31;18.70;;;12.33;;
15342;SDS011;7771;48.478;8.936;2024-02-28T13:14:59;19.17;;;13.43;;
15342;SDS011;7771;48.478;8.936;2024-02-28T13:17:27;21.00;;;13.10;;
15342;SDS011;7771;48.478;8.936;2024-02-28T13:19:55;18.50;;;12.87;;
15342;SDS011;7771;48.478;8.936;2024-02-28T13:22:23;17.07;;;12.37;;
15342;SDS011;7771;48.478;8.936;2024-02-28T13:24:51;18.77;;;12.23;;
15342;SDS011;7771;48.478;8.936;2024-02-28T13:27:17;17.40;;;12.93;;
15342;SDS011;7771;48.478;8.936;2024-02-28T13:29:45;19.67;;;13.50;;
15342;SDS011;7771;48.478;8.936;2024-02-28T13:32:11;19.33;;;13.30;;
15342;SDS011;7771;48.478;8.936;2024-02-28T13:34:39;17.23;;;12.40;;
15342;SDS011;7771;48.478;8.936;2024-02-28T13:37:06;17.13;;;12.57;;
15342;SDS011;7771;48.478;8.936;2024-02-28T13:39:33;20.83;;;13.20;;
15342;SDS011;7771;48.478;8.936;2024-02-28T13:42:00;20.03;;;12.67;;
15342;SDS011;7771;48.478;8.936;2024-02-28T13:44:27;15.27;;;11.43;;
15342;SDS011;7771;48.478;8.936;2024-02-28T13:46:56;16.60;;;11.03;;
15342;SDS011;7771;48.478;8.936;2024-02-28T13:49:24;17.60;;;12.50;;
15342;SDS011;7771;48.478;8.936;2024-02-28T13:51:51;17.20;;;11.83;;
15342;SDS011;7771;48.478;8.936;2024-02-28T13:54:20;18.33;;;11.77;;
15342;SDS011;7771;48.478;8.936;2024-02-28T13:56:46;16.50;;;11.47;;
15342;SDS011;7771;48.478;8.936;2024-02-28T13:59:14;18.97;;;12.80;;
15342;SDS011;7771;48.478;8.936;2024-02-28T14:01:41;18.40;;;12.63;;
15342;SDS011;7771;48.478;8.936;2024-02-28T14:04:08;22.27;;;13.47;;
15342;SDS011;7771;48.478;8.936;2024-02-28T14:06:37;17.40;;;11.73;;
15342;SDS011;7771;48.478;8.936;2024-02-28T14:09:03;18.50;;;11.27;;
15342;SDS011;7771;48.478;8.936;2024-02-28T14:11:30;18.27;;;11.70;;
15342;SDS011;7771;48.478;8.936;2024-02-28T14:13:57;16.60;;;10.87;;
15342;SDS011;7771;48.478;8.936;2024-02-28T14:16:25;17.80;;;12.67;;
15342;SDS011;7771;48.478;8.936;2024-02-28T14:18:52;17.60;;;12.07;;
15342;SDS011;7771;48.478;8.936;2024-02-28T14:21:19;39.83;;;15.57;;
15342;SDS011;7771;48.478;8.936;2024-02-28T14:23:46;23.10;;;13.23;;
15342;SDS011;7771;48.478;8.936;2024-02-28T14:26:15;18.70;;;11.77;;
15342;SDS011;7771;48.478;8.936;2024-02-28T14:28:43;20.07;;;11.77;;
15342;SDS011;7771;48.478;8.936;2024-02-28T14:31:10;21.83;;;12.03;;
15342;SDS011;7771;48.478;8.936;2024-02-28T14:33:37;23.13;;;11.97;;
15342;SDS011;7771;48.478;8.936;2024-02-28T14:36:04;19.27;;;12.50;;
15342;SDS011;7771;48.478;8.936;2024-02-28T14:38:31;18.53;;;11.63;;
15342;SDS011;7771;48.478;8.936;2024-02-28T14:40:58;18.30;;;11.80;;